Time;durP1;ratioP1;P1;durP2;ratioP2;P2;SDS_P1;SDS_P2;PMS_P1;PMS_P2;Temp;Humidity;BMP_temperature;BMP_pressure;BME280_temperature;BME280_humidity;BME280_pressure;Samples;Min_cycle;Max_cycle;Signal;HPM_P1;HPM_P2
2022/07/10 00:00:29;;;;;;;2.88;2.50;;;;;;;18.69;90.57;100419.75;4900153;29;20036;-82
2022/07/10 00:02:56;;;;;;;3.38;2.80;;;;;;;18.61;91.19;100424.50;4907622;29;20025;-81
2022/07/10 00:05:23;;;;;;;2.60;2.40;;;;;;;18.69;90.93;100430.38;4898702;29;20492;-82
2022/07/10 00:07:50;;;;;;;3.25;2.60;;;;;;;18.50;91.62;100420.69;4899838;29;20088;-82
2022/07/10 00:10:16;;;;;;;4.18;2.33;;;;;;;18.61;90.92;100422.63;4883138;29;20047;-82
2022/07/10 00:12:45;;;;;;;5.35;2.65;;;;;;;18.49;91.72;100427.03;4901412;29;20100;-82
2022/07/10 00:15:12;;;;;;;2.90;2.40;;;;;;;18.64;91.17;100424.88;4918009;29;20056;-82
2022/07/10 00:17:40;;;;;;;3.08;2.72;;;;;;;18.63;91.12;100414.47;4918694;29;20091;-82
2022/07/10 00:20:07;;;;;;;3.38;2.60;;;;;;;18.73;90.86;100419.31;4918513;29;20091;-81
2022/07/10 00:22:36;;;;;;;3.28;2.47;;;;;;;18.50;91.62;100420.69;4901309;29;20499;-81
2022/07/10 00:25:03;;;;;;;3.83;2.67;;;;;;;18.65;91.22;100409.75;4917927;29;20032;-81
2022/07/10 00:27:32;;;;;;;7.22;3.17;;;;;;;18.49;91.68;100406.56;4901308;29;20143;-81
2022/07/10 00:30:02;;;;;;;5.93;2.90;;;;;;;18.59;91.75;100408.75;4918301;29;20067;-81
2022/07/10 00:32:28;;;;;;;4.95;3.42;;;;;;;18.33;92.61;100405.22;4885716;29;20067;-82
2022/07/10 00:34:54;;;;;;;4.82;2.88;;;;;;;18.28;92.94;100407.69;4918133;29;20039;-82
2022/07/10 00:37:21;;;;;;;6.25;3.10;;;;;;;18.18;93.48;100402.00;4918132;29;20070;-82
2022/07/10 00:39:47;;;;;;;3.97;3.00;;;;;;;18.38;93.24;100402.72;4901061;29;20042;-82
2022/07/10 00:42:14;;;;;;;3.28;2.83;;;;;;;18.24;93.68;100395.84;4918150;29;20470;-82
2022/07/10 00:44:42;;;;;;;3.35;2.88;;;;;;;18.04;94.13;100407.38;4917980;29;20372;-81
2022/07/10 00:47:09;;;;;;;5.13;2.70;;;;;;;18.28;93.51;100397.06;4900937;29;20044;-82
2022/07/10 00:49:36;;;;;;;4.95;2.90;;;;;;;18.16;93.75;100394.25;4917987;29;20394;-81
2022/07/10 00:52:06;;;;;;;5.13;3.28;;;;;;;17.82;94.67;100399.66;4917688;29;20380;-82
2022/07/10 00:54:33;;;;;;;5.63;3.30;;;;;;;17.82;94.31;100391.69;4880232;29;20483;-82
2022/07/10 00:56:59;;;;;;;3.33;3.00;;;;;;;18.06;93.69;100381.41;4900066;29;20479;-82
2022/07/10 00:59:27;;;;;;;3.75;2.83;;;;;;;18.13;93.22;100382.22;4900790;29;20047;-81
2022/07/10 01:01:53;;;;;;;3.13;2.80;;;;;;;18.22;92.43;100380.13;4917660;29;20035;-82
2022/07/10 01:04:19;;;;;;;4.40;3.10;;;;;;;18.21;92.17;100375.84;4917520;29;20127;-81
2022/07/10 01:06:45;;;;;;;3.28;2.95;;;;;;;17.95;92.74;100374.88;4900837;29;20118;-81
2022/07/10 01:09:13;;;;;;;7.15;3.30;;;;;;;17.78;92.61;100371.88;4889678;29;20047;-81
2022/07/10 01:11:39;;;;;;;4.95;2.90;;;;;;;18.04;92.33;100370.16;4898537;29;20495;-82
2022/07/10 01:14:06;;;;;;;4.10;2.80;;;;;;;18.08;92.21;100367.91;4884614;29;20553;-82
2022/07/10 01:16:32;;;;;;;3.95;2.80;;;;;;;18.02;92.05;100366.13;4917360;29;20071;-82
2022/07/10 01:18:59;;;;;;;4.35;3.17;;;;;;;17.91;92.23;100364.91;4917924;29;20091;-82
2022/07/10 01:21:31;;;;;;;3.85;3.17;;;;;;;17.80;92.74;100369.03;4900445;29;20130;-82
2022/07/10 01:23:58;;;;;;;4.40;2.80;;;;;;;17.75;92.33;100366.16;4884373;29;20518;-83
2022/07/10 01:26:24;;;;;;;3.58;2.65;;;;;;;17.99;91.83;100368.13;4905498;29;20055;-83
2022/07/10 01:28:50;;;;;;;3.42;2.92;;;;;;;17.84;91.64;100360.41;4900323;29;20068;-82
2022/07/10 01:31:34;;;;;;;4.55;2.45;;;;;;;17.63;91.75;100358.88;4887109;29;20131;-82
2022/07/10 01:34:02;;;;;;;5.78;2.83;;;;;;;17.78;91.91;100355.13;4890587;29;20050;-82
2022/07/10 01:36:32;;;;;;;3.95;2.97;;;;;;;17.91;91.44;100359.59;4903576;29;20035;-82
2022/07/10 01:38:59;;;;;;;3.63;2.65;;;;;;;17.74;92.71;100354.75;4914366;29;20368;-82
2022/07/10 01:41:25;;;;;;;5.45;2.90;;;;;;;17.67;93.78;100351.28;4917089;29;20036;-82
2022/07/10 01:43:51;;;;;;;5.82;3.28;;;;;;;17.77;94.07;100361.47;4909259;29;20036;-82
2022/07/10 01:46:17;;;;;;;5.00;3.17;;;;;;;17.82;93.79;100367.78;4903242;29;20055;-83
2022/07/10 01:48:43;;;;;;;3.40;2.72;;;;;;;17.59;94.91;100357.66;4901361;29;20036;-83
2022/07/10 01:51:11;;;;;;;9.18;3.72;;;;;;;17.64;95.14;100354.34;4895253;29;20088;-82
2022/07/10 01:53:36;;;;;;;3.85;3.42;;;;;;;17.54;95.12;100350.31;4890334;29;20032;-83
2022/07/10 01:56:05;;;;;;;4.88;2.97;;;;;;;17.75;94.71;100345.75;4875199;29;20467;-82
2022/07/10 01:58:31;;;;;;;6.43;3.13;;;;;;;17.50;95.32;100354.41;4916815;29;20122;-82
2022/07/10 02:00:57;;;;;;;4.75;3.28;;;;;;;17.53;95.50;100350.50;4903288;29;20036;-81
2022/07/10 02:06:07;;;;;;;3.67;3.10;;;;;;;17.59;95.35;100352.34;4917022;29;20048;-83
2022/07/10 02:08:33;;;;;;;4.68;2.83;;;;;;;17.32;96.06;100346.28;4913411;29;20092;-82
2022/07/10 02:10:59;;;;;;;4.30;3.10;;;;;;;17.38;95.46;100346.25;4898063;29;20040;-83
2022/07/10 02:13:27;;;;;;;2.83;2.50;;;;;;;17.55;94.95;100333.34;4915702;29;20040;-84
2022/07/10 02:15:56;;;;;;;5.20;3.05;;;;;;;17.63;94.66;100342.94;4916976;29;20041;-83
2022/07/10 02:18:22;;;;;;;4.85;2.80;;;;;;;17.54;94.22;100338.84;4908636;29;20475;-82
2022/07/10 02:20:48;;;;;;;5.32;3.00;;;;;;;17.36;94.77;100342.19;4897983;29;20041;-81
2022/07/10 02:23:13;;;;;;;4.70;2.80;;;;;;;17.46;94.15;100337.25;4898088;29;20039;-83
2022/07/10 02:25:39;;;;;;;6.15;2.70;;;;;;;17.49;94.60;100346.63;4881227;29;20475;-83
2022/07/10 02:28:04;;;;;;;5.13;3.22;;;;;;;17.22;95.16;100336.88;4881070;29;20036;-83
2022/07/10 02:30:31;;;;;;;6.15;2.70;;;;;;;17.42;94.75;100338.69;4897981;29;20044;-82
2022/07/10 02:32:57;;;;;;;5.13;3.25;;;;;;;17.24;95.23;100342.00;4898048;29;20119;-83
2022/07/10 02:35:23;;;;;;;4.63;2.83;;;;;;;17.31;95.21;100326.06;4897788;29;20136;-82
2022/07/10 02:37:48;;;;;;;2.90;2.60;;;;;;;17.41;94.87;100326.44;4897955;29;20035;-82
2022/07/10 02:40:14;;;;;;;4.28;2.92;;;;;;;17.38;94.62;100318.91;4905268;29;20058;-82
2022/07/10 02:42:40;;;;;;;4.57;2.75;;;;;;;17.32;94.85;100309.94;4881158;29;20066;-83
2022/07/10 02:45:07;;;;;;;4.18;2.60;;;;;;;17.22;94.94;100315.66;4897747;29;20040;-83
2022/07/10 02:47:32;;;;;;;3.20;2.90;;;;;;;17.34;94.62;100320.34;4899673;29;20039;-83
2022/07/10 02:50:00;;;;;;;3.58;3.03;;;;;;;17.21;94.95;100318.53;4918257;29;20036;-82
2022/07/10 02:52:25;;;;;;;3.97;2.60;;;;;;;17.18;95.10;100322.41;4920274;29;20040;-83
2022/07/10 02:54:51;;;;;;;3.97;2.60;;;;;;;16.97;95.79;100316.28;4916852;29;20033;-83
2022/07/10 02:57:17;;;;;;;3.35;2.65;;;;;;;17.02;95.45;100321.00;4884660;29;20131;-83
2022/07/10 02:59:43;;;;;;;3.25;2.70;;;;;;;17.06;95.89;100318.75;4900042;29;20036;-83
2022/07/10 03:02:09;;;;;;;2.90;2.47;;;;;;;17.11;95.45;100318.97;4884259;29;20048;-83
2022/07/10 03:04:34;;;;;;;2.70;2.50;;;;;;;17.09;95.35;100310.38;4884239;29;20110;-84
2022/07/10 03:07:00;;;;;;;3.30;2.65;;;;;;;17.02;95.76;100314.88;4900908;29;20083;-82
2022/07/10 03:09:26;;;;;;;3.35;2.42;;;;;;;16.84;96.59;100314.47;4901048;29;20392;-84
2022/07/10 03:11:51;;;;;;;5.03;2.65;;;;;;;17.10;95.75;100312.03;4920244;29;20123;-83
2022/07/10 03:14:17;;;;;;;3.97;2.95;;;;;;;16.71;96.90;100314.44;4919454;29;20095;-83
2022/07/10 03:16:43;;;;;;;3.90;2.35;;;;;;;16.66;98.13;100333.59;4919668;29;20386;-82
2022/07/10 03:19:09;;;;;;;3.55;2.60;;;;;;;16.63;99.17;100322.63;4919847;29;20032;-82
2022/07/10 03:21:34;;;;;;;3.20;2.80;;;;;;;16.77;99.43;100316.28;4891844;29;20044;-82
2022/07/10 03:24:00;;;;;;;3.08;2.80;;;;;;;16.73;99.91;100317.72;4900645;29;20052;-82
2022/07/10 03:26:26;;;;;;;3.30;3.00;;;;;;;16.52;100.00;100321.38;4909107;29;20095;-82
2022/07/10 03:28:52;;;;;;;5.20;3.13;;;;;;;16.72;100.00;100325.88;4903055;29;20043;-83
2022/07/10 03:31:17;;;;;;;4.88;3.13;;;;;;;16.68;100.00;100318.31;4919517;29;20036;-83
2022/07/10 03:33:43;;;;;;;5.82;3.00;;;;;;;16.46;100.00;100306.25;4902441;29;20100;-82
2022/07/10 03:36:08;;;;;;;4.47;3.10;;;;;;;16.24;100.00;100303.78;4919421;29;20408;-82
2022/07/10 03:38:34;;;;;;;5.85;3.20;;;;;;;16.41;100.00;100299.75;4919377;29;20124;-82
2022/07/10 03:41:00;;;;;;;6.53;3.85;;;;;;;16.56;100.00;100298.75;4919105;29;20414;-82
2022/07/10 03:43:26;;;;;;;4.53;4.13;;;;;;;16.45;100.00;100288.72;4909543;29;20107;-82
2022/07/10 03:45:51;;;;;;;4.28;3.83;;;;;;;16.31;100.00;100294.03;4891532;29;20035;-81
2022/07/10 03:48:17;;;;;;;5.47;3.80;;;;;;;16.41;100.00;100291.78;4904479;29;20028;-82
2022/07/10 03:50:43;;;;;;;5.13;3.90;;;;;;;16.41;100.00;100296.28;4909474;29;20038;-81
2022/07/10 03:53:08;;;;;;;4.70;4.10;;;;;;;16.42;100.00;100293.41;4902158;29;20455;-81
2022/07/10 03:55:34;;;;;;;5.75;3.83;;;;;;;16.45;100.00;100291.38;4919077;29;20088;-80
2022/07/10 03:58:02;;;;;;;4.10;3.65;;;;;;;16.56;100.00;100296.09;4898706;29;20036;-82
2022/07/10 04:00:32;;;;;;;4.38;3.50;;;;;;;16.67;100.00;100292.03;4894107;29;20124;-82
2022/07/10 04:03:03;;;;;;;4.68;3.72;;;;;;;16.45;100.00;100288.72;4918961;29;20127;-81
2022/07/10 04:05:29;;;;;;;7.28;3.50;;;;;;;16.55;100.00;100284.66;4901892;29;20103;-81
2022/07/10 04:07:59;;;;;;;6.25;3.80;;;;;;;16.64;100.00;100293.22;4918927;29;20032;-81
2022/07/10 04:10:26;;;;;;;4.32;3.50;;;;;;;16.71;100.00;100287.94;4906876;29;20066;-82
2022/07/10 04:12:55;;;;;;;6.60;4.03;;;;;;;16.59;100.00;100277.13;4903378;29;20051;-81
2022/07/10 04:15:22;;;;;;;4.53;3.47;;;;;;;16.56;100.00;100280.19;4904814;29;20052;-82
2022/07/10 04:17:48;;;;;;;5.63;3.65;;;;;;;16.80;100.00;100280.59;4909244;29;20040;-82
2022/07/10 04:20:16;;;;;;;3.75;3.35;;;;;;;16.75;100.00;100270.59;4913756;29;20110;-82
2022/07/10 04:22:41;;;;;;;16.58;3.80;;;;;;;16.91;100.00;100277.31;4901510;29;20036;-82
2022/07/10 04:25:08;;;;;;;4.28;3.83;;;;;;;17.04;99.66;100276.53;4918495;29;20036;-82
2022/07/10 04:27:34;;;;;;;3.85;3.42;;;;;;;17.01;99.44;100279.59;4901634;29;20490;-81
2022/07/10 04:29:59;;;;;;;3.13;2.80;;;;;;;17.05;98.39;100274.66;4918229;29;20065;-81
2022/07/10 04:32:25;;;;;;;5.53;3.03;;;;;;;17.09;98.34;100282.00;4901513;29;20503;-81
2022/07/10 04:34:51;;;;;;;3.58;3.00;;;;;;;17.09;98.05;100284.66;4918210;29;20071;-81
2022/07/10 04:37:16;;;;;;;5.03;3.38;;;;;;;16.96;98.21;100285.47;4901235;29;20436;-81
2022/07/10 04:39:42;;;;;;;3.80;3.45;;;;;;;16.95;97.61;100275.06;4918348;29;20189;-81
2022/07/10 04:42:08;;;;;;;3.00;2.80;;;;;;;17.21;96.97;100276.09;4918034;29;20043;-81
2022/07/10 04:44:38;;;;;;;3.55;2.67;;;;;;;17.34;96.41;100275.22;4895248;29;20079;-81
2022/07/10 04:47:05;;;;;;;4.00;2.90;;;;;;;17.24;95.33;100276.47;4899193;29;20048;-81
2022/07/10 04:49:31;;;;;;;3.42;2.92;;;;;;;17.34;94.99;100276.03;4899882;29;20410;-80
2022/07/10 04:51:56;;;;;;;3.70;2.92;;;;;;;17.53;94.73;100270.88;4901005;29;20029;-81
2022/07/10 04:54:22;;;;;;;3.80;3.25;;;;;;;17.53;94.43;100274.34;4898855;29;20048;-80
2022/07/10 04:56:48;;;;;;;3.53;3.22;;;;;;;17.65;94.11;100269.19;4898988;29;20044;-81
2022/07/10 04:59:14;;;;;;;3.42;2.97;;;;;;;17.76;94.26;100278.34;4888969;29;20419;-79
2022/07/10 05:01:40;;;;;;;3.40;3.10;;;;;;;17.73;93.99;100262.00;4905532;29;20037;-81
2022/07/10 05:04:05;;;;;;;3.40;3.00;;;;;;;17.99;94.04;100269.03;4907707;29;20484;-79
2022/07/10 05:06:31;;;;;;;5.22;2.95;;;;;;;18.01;93.99;100264.31;4904904;29;20550;-79
2022/07/10 05:08:56;;;;;;;4.30;3.42;;;;;;;17.84;94.41;100264.00;4903073;29;20040;-82
2022/07/10 05:11:22;;;;;;;3.40;3.10;;;;;;;17.83;95.09;100267.69;4910405;29;20032;-81
2022/07/10 05:13:48;;;;;;;3.08;2.78;;;;;;;17.90;94.82;100272.97;4912662;29;20051;-79
2022/07/10 05:16:14;;;;;;;4.30;3.30;;;;;;;18.07;94.75;100275.94;4907975;29;20063;-79
2022/07/10 05:18:40;;;;;;;3.40;2.90;;;;;;;18.22;94.67;100275.66;4883321;29;20065;-78
2022/07/10 05:21:07;;;;;;;6.90;3.38;;;;;;;17.76;95.16;100259.75;4888109;29;20950;-79
2022/07/10 05:23:32;;;;;;;2.95;2.70;;;;;;;18.03;94.87;100266.78;4902468;29;20445;-79
2022/07/10 05:25:58;;;;;;;3.55;2.70;;;;;;;18.05;94.14;100260.22;4896472;29;20036;-81
2022/07/10 05:28:24;;;;;;;3.35;2.78;;;;;;;18.23;93.46;100250.69;4890821;29;20044;-81
2022/07/10 05:30:52;;;;;;;3.28;2.78;;;;;;;18.32;93.67;100260.06;4903938;29;20055;-83
2022/07/10 05:33:18;;;;;;;3.72;2.70;;;;;;;18.24;93.33;100262.97;4887067;29;20032;-81
2022/07/10 05:35:44;;;;;;;3.25;2.80;;;;;;;18.17;94.00;100262.19;4889581;29;20028;-85
2022/07/10 05:38:10;;;;;;;2.83;2.47;;;;;;;18.27;92.95;100262.53;4889052;29;20119;-83
2022/07/10 05:40:36;;;;;;;3.10;2.63;;;;;;;18.18;93.71;100254.03;4907728;29;20044;-83
2022/07/10 05:43:02;;;;;;;2.88;2.67;;;;;;;18.29;93.05;100260.50;4887111;29;20035;-80
2022/07/10 05:45:28;;;;;;;2.90;2.60;;;;;;;18.51;92.35;100249.50;4888021;29;20039;-85
2022/07/10 05:47:53;;;;;;;3.75;2.80;;;;;;;18.72;92.43;100258.91;4891905;29;20023;-82
2022/07/10 05:50:19;;;;;;;3.60;2.45;;;;;;;18.67;92.80;100262.25;4904621;29;20036;-82
2022/07/10 05:52:45;;;;;;;3.08;2.58;;;;;;;18.93;91.61;100257.69;4892869;29;20040;-82
2022/07/10 05:55:14;;;;;;;4.57;2.45;;;;;;;19.17;91.06;100257.88;4885626;29;20146;-82
2022/07/10 05:57:40;;;;;;;5.57;2.20;;;;;;;18.96;91.01;100265.22;4884081;29;20043;-82
2022/07/10 06:00:08;;;;;;;2.60;2.38;;;;;;;19.06;90.85;100263.94;4901801;29;20486;-83
2022/07/10 06:02:34;;;;;;;2.95;2.20;;;;;;;19.16;90.88;100264.25;4894213;29;20033;-82
2022/07/10 06:04:59;;;;;;;3.90;2.42;;;;;;;19.10;89.92;100260.63;4898157;29;20036;-81
2022/07/10 06:07:26;;;;;;;3.22;2.60;;;;;;;19.44;90.51;100260.22;4905276;29;20032;-83
2022/07/10 06:09:52;;;;;;;5.43;2.50;;;;;;;19.44;90.99;100260.22;4906379;29;20037;-83
2022/07/10 06:12:18;;;;;;;2.92;2.65;;;;;;;19.46;90.90;100258.19;4899955;29;20033;-81
2022/07/10 06:14:44;;;;;;;3.08;2.42;;;;;;;19.50;90.55;100254.03;4891296;29;20100;-82
2022/07/10 06:17:09;;;;;;;3.42;2.45;;;;;;;19.59;90.28;100261.69;4890893;29;20036;-82
2022/07/10 06:19:35;;;;;;;3.88;2.53;;;;;;;19.58;90.65;100260.06;4890017;29;20032;-81
2022/07/10 06:24:50;;;;;;;3.28;2.45;;;;;;;19.97;89.16;100266.78;4892184;29;20506;-80
2022/07/10 06:27:19;;;;;;;4.55;2.28;;;;;;;19.90;88.62;100246.56;4872303;29;20144;-82
2022/07/10 06:29:45;;;;;;;2.42;2.20;;;;;;;19.98;89.03;100244.41;4891717;29;20028;-80
2022/07/10 06:32:19;;;;;;;4.65;2.20;;;;;;;20.12;88.34;100254.84;4906924;29;20036;-80
2022/07/10 06:34:45;;;;;;;2.38;2.17;;;;;;;19.87;88.79;100252.34;4913422;29;20041;-81
2022/07/10 06:37:10;;;;;;;4.40;2.28;;;;;;;20.02;88.90;100250.09;4908724;29;20051;-81
2022/07/10 06:39:36;;;;;;;2.63;2.42;;;;;;;20.23;88.04;100262.09;4885022;29;20364;-81
2022/07/10 06:42:06;;;;;;;3.63;2.03;;;;;;;20.37;86.76;100256.56;4914579;29;20115;-80
2022/07/10 06:44:32;;;;;;;2.50;2.30;;;;;;;20.42;85.73;100248.66;4912125;29;20036;-81
2022/07/10 06:49:48;;;;;;;1.80;1.70;;;;;;;20.59;83.50;100251.47;4909070;29;20036;-81
2022/07/10 06:52:14;;;;;;;1.98;1.88;;;;;;;20.72;82.75;100254.94;4911527;29;20060;-85
2022/07/10 06:54:40;;;;;;;4.20;1.90;;;;;;;20.80;81.40;100249.28;4908299;29;20028;-83
2022/07/10 06:57:06;;;;;;;1.77;1.67;;;;;;;20.89;81.51;100253.25;4892234;29;20064;-83
2022/07/10 06:59:32;;;;;;;2.15;1.70;;;;;;;20.92;81.43;100246.59;4909258;29;20044;-83
2022/07/10 07:01:59;;;;;;;2.60;1.63;;;;;;;21.11;81.21;100255.28;4884238;29;20440;-83
2022/07/10 07:04:24;;;;;;;1.80;1.70;;;;;;;21.00;80.13;100242.75;4891765;29;20024;-82
2022/07/10 07:06:50;;;;;;;1.88;1.77;;;;;;;21.13;80.08;100253.19;4889778;29;20025;-84
2022/07/10 07:09:16;;;;;;;2.15;1.55;;;;;;;21.20;78.25;100256.53;4891812;29;20107;-84
2022/07/10 07:11:42;;;;;;;2.17;1.50;;;;;;;21.15;79.52;100261.00;4875375;29;20032;-81
2022/07/10 07:14:07;;;;;;;1.70;1.60;;;;;;;21.12;78.22;100251.59;4905335;29;20078;-81
2022/07/10 07:16:42;;;;;;;3.78;1.90;;;;;;;21.21;78.04;100257.38;4891517;29;20032;-81
2022/07/10 07:19:17;;;;;;;2.03;1.70;;;;;;;21.17;76.96;100248.22;4907383;29;20541;-80
2022/07/10 07:24:28;;;;;;;1.90;1.80;;;;;;;21.44;74.09;100256.50;4890356;29;20550;-81
2022/07/10 07:27:00;;;;;;;2.00;1.90;;;;;;;21.41;74.22;100243.59;4906816;29;20040;-81
2022/07/10 07:29:26;;;;;;;2.10;2.00;;;;;;;21.49;74.01;100245.91;4876720;29;20032;-81
2022/07/10 07:31:55;;;;;;;2.38;2.13;;;;;;;21.46;73.80;100234.88;4909490;29;20047;-81
2022/07/10 07:34:21;;;;;;;2.88;2.10;;;;;;;21.59;73.83;100250.66;4911101;29;20539;-81
2022/07/10 07:36:47;;;;;;;2.38;2.22;;;;;;;21.58;74.51;100235.66;4904392;29;20032;-83
2022/07/10 07:39:13;;;;;;;2.20;2.05;;;;;;;21.60;73.34;100241.59;4892938;29;20032;-82
2022/07/10 07:41:41;;;;;;;2.17;2.00;;;;;;;21.46;74.24;100237.56;4876656;29;20079;-84
2022/07/10 07:44:08;;;;;;;2.30;2.10;;;;;;;21.66;74.35;100223.81;4870608;29;20031;-83
2022/07/10 07:46:34;;;;;;;2.28;2.08;;;;;;;21.81;74.01;100232.13;4911736;29;20036;-83
2022/07/10 07:49:00;;;;;;;2.10;2.00;;;;;;;21.86;73.17;100235.94;4892298;29;20479;-82
2022/07/10 07:51:26;;;;;;;3.17;2.08;;;;;;;22.02;72.19;100240.50;4898317;29;20138;-82
2022/07/10 07:53:53;;;;;;;2.28;2.10;;;;;;;22.02;71.83;100232.47;4876970;29;20104;-80
2022/07/10 07:56:18;;;;;;;2.65;2.15;;;;;;;22.05;72.02;100232.00;4907991;29;20470;-82
2022/07/10 07:58:44;;;;;;;2.38;2.10;;;;;;;22.05;70.45;100231.16;4877351;29;20124;-82
2022/07/10 08:01:13;;;;;;;2.28;2.08;;;;;;;21.99;71.58;100230.25;4893782;29;20439;-81
2022/07/10 08:03:38;;;;;;;2.58;2.17;;;;;;;22.16;72.33;100242.84;4868671;29;20032;-81
2022/07/10 08:06:04;;;;;;;2.53;2.25;;;;;;;22.30;72.72;100241.47;4904398;29;20032;-80
2022/07/10 08:08:30;;;;;;;2.40;2.30;;;;;;;22.40;73.18;100238.16;4910218;29;20032;-81
2022/07/10 08:10:56;;;;;;;2.55;2.25;;;;;;;22.47;71.82;100238.03;4883001;29;20056;-80
2022/07/10 08:13:22;;;;;;;2.78;2.58;;;;;;;22.52;71.63;100235.41;4907697;29;20033;-80
2022/07/10 08:15:48;;;;;;;2.50;2.30;;;;;;;22.49;71.53;100219.84;4889107;29;20040;-82
2022/07/10 08:18:20;;;;;;;2.55;2.35;;;;;;;22.62;70.96;100230.22;4906931;29;20604;-81
2022/07/10 08:20:46;;;;;;;2.20;2.00;;;;;;;22.53;71.05;100232.50;4903759;29;20036;-83
2022/07/10 08:23:11;;;;;;;2.53;2.00;;;;;;;22.55;71.09;100229.56;4905631;29;20044;-82
2022/07/10 08:25:37;;;;;;;2.60;2.40;;;;;;;22.64;72.02;100232.63;4877007;29;20040;-83
2022/07/10 08:28:05;;;;;;;2.22;2.10;;;;;;;22.81;72.02;100225.38;4904700;29;20039;-81
2022/07/10 08:30:31;;;;;;;3.38;2.47;;;;;;;22.96;71.77;100227.47;4906934;29;20036;-82
2022/07/10 08:32:57;;;;;;;2.85;2.55;;;;;;;23.09;72.04;100228.16;4891247;29;20055;-82
2022/07/10 08:35:23;;;;;;;3.40;2.80;;;;;;;23.18;71.38;100231.22;4897401;29;20535;-83
2022/07/10 08:37:48;;;;;;;5.63;4.25;;;;;;;23.21;70.93;100220.81;4899266;29;20479;-83
2022/07/10 08:40:16;;;;;;;7.03;4.68;;;;;;;23.31;70.35;100224.69;4891047;29;20103;-82
2022/07/10 08:42:46;;;;;;;6.13;5.00;;;;;;;23.33;71.35;100215.34;4882454;29;20033;-83
2022/07/10 08:45:13;;;;;;;5.50;5.00;;;;;;;23.43;71.64;100217.34;4875174;29;20024;-81
2022/07/10 08:47:41;;;;;;;5.13;4.10;;;;;;;23.53;73.20;100222.00;4870693;29;20043;-80
2022/07/10 08:50:22;;;;;;;5.82;5.20;;;;;;;23.48;72.07;100206.66;4886486;29;20028;-80
2022/07/10 08:52:55;;;;;;;8.35;7.13;;;;;;;23.69;72.58;100220.28;4878560;29;20514;-81
2022/07/10 08:55:25;;;;;;;10.02;7.63;;;;;;;23.71;72.01;100218.16;4867349;29;20032;-80
2022/07/10 08:57:52;;;;;;;6.38;5.70;;;;;;;23.76;71.81;100226.22;4884228;29;20032;-79
2022/07/10 09:00:18;;;;;;;6.90;5.40;;;;;;;23.71;72.59;100218.16;4889020;29;20091;-81
2022/07/10 09:02:44;;;;;;;6.93;6.07;;;;;;;23.78;71.98;100215.25;4872134;29;20480;-84
2022/07/10 09:05:10;;;;;;;5.68;5.05;;;;;;;23.88;73.50;100211.88;4887138;29;20039;-84
2022/07/10 09:07:36;;;;;;;4.63;4.07;;;;;;;23.86;72.99;100204.06;4887322;29;20480;-82
2022/07/10 09:10:07;;;;;;;5.00;4.07;;;;;;;24.00;72.53;100207.16;4898632;29;20183;-82
2022/07/10 09:12:53;;;;;;;4.22;3.60;;;;;;;24.22;73.71;100203.59;4902759;29;20033;-84
2022/07/10 09:15:22;;;;;;;3.47;3.17;;;;;;;24.31;74.01;100207.41;4871927;29;20052;-82
2022/07/10 09:17:59;;;;;;;3.15;2.85;;;;;;;24.08;71.90;100200.56;4908792;29;20036;-81
2022/07/10 09:20:29;;;;;;;3.65;2.97;;;;;;;24.23;71.83;100206.00;4893813;29;20036;-82
2022/07/10 09:22:56;;;;;;;2.67;2.40;;;;;;;24.28;72.36;100199.88;4891887;29;20132;-83
2022/07/10 09:25:22;;;;;;;5.15;3.92;;;;;;;24.18;72.11;100194.44;4904920;29;20032;-82
2022/07/10 09:27:55;;;;;;;5.03;3.60;;;;;;;24.07;71.86;100193.53;4889272;29;20084;-82
2022/07/10 09:30:37;;;;;;;3.80;3.30;;;;;;;24.19;71.69;100188.03;4887993;29;20036;-82
2022/07/10 09:33:25;;;;;;;4.72;3.50;;;;;;;24.22;71.80;100187.50;4907112;29;20525;-81
2022/07/10 09:36:10;;;;;;;3.30;3.00;;;;;;;24.32;73.97;100194.81;4905010;29;20088;-83
2022/07/10 09:38:45;;;;;;;3.25;3.03;;;;;;;24.39;72.24;100185.47;4882347;29;21723;-81
2022/07/10 09:41:21;;;;;;;4.07;2.40;;;;;;;24.50;72.25;100185.53;4889143;29;20036;-81
2022/07/10 09:43:47;;;;;;;3.50;2.83;;;;;;;24.42;72.30;100191.38;4908137;29;20035;-80
2022/07/10 09:46:15;;;;;;;4.68;3.00;;;;;;;24.41;71.25;100179.03;4874311;29;20039;-81
2022/07/10 09:48:49;;;;;;;2.60;2.40;;;;;;;24.25;73.43;100184.31;4880792;29;20032;-81
2022/07/10 09:51:15;;;;;;;2.63;2.42;;;;;;;24.41;71.34;100184.41;4906581;29;20115;-80
2022/07/10 09:53:44;;;;;;;4.22;2.55;;;;;;;24.64;72.05;100186.69;4890929;29;20123;-81
2022/07/10 09:56:13;;;;;;;2.22;2.13;;;;;;;24.79;72.10;100188.66;4884738;29;20032;-81
2022/07/10 09:58:40;;;;;;;2.25;2.10;;;;;;;24.95;71.51;100189.53;4905978;29;20111;-81
2022/07/10 10:01:07;;;;;;;2.17;2.08;;;;;;;25.07;70.73;100186.63;4900020;29;20391;-81
2022/07/10 10:03:38;;;;;;;2.40;2.20;;;;;;;25.16;70.06;100181.56;4899315;29;20491;-80
2022/07/10 10:06:16;;;;;;;2.15;2.05;;;;;;;24.94;69.80;100182.53;4881417;29;20029;-80
2022/07/10 10:08:56;;;;;;;2.17;2.08;;;;;;;25.15;70.09;100173.75;4878731;29;20032;-80
2022/07/10 10:11:25;;;;;;;2.50;1.98;;;;;;;25.18;70.28;100174.06;4886229;29;20476;-80
2022/07/10 10:13:54;;;;;;;2.10;2.00;;;;;;;25.30;70.89;100170.28;4903960;29;20487;-81
2022/07/10 10:16:55;;;;;;;2.20;2.00;;;;;;;25.06;69.06;100160.03;4896216;29;20411;-79
2022/07/10 10:22:38;;;;;;;2.00;1.90;;;;;;;25.32;70.50;100139.41;4898631;29;20124;-79
2022/07/10 10:25:05;;;;;;;2.17;2.00;;;;;;;25.27;69.78;100162.78;4889197;29;20032;-80
2022/07/10 10:27:31;;;;;;;1.90;1.80;;;;;;;25.24;69.36;100161.41;4895788;29;20035;-80
2022/07/10 10:29:57;;;;;;;2.00;1.90;;;;;;;25.33;68.79;100154.47;4900062;29;20028;-86
2022/07/10 10:32:23;;;;;;;4.70;2.17;;;;;;;25.36;68.49;100153.94;4905196;29;20028;-84
2022/07/10 10:34:59;;;;;;;1.90;1.80;;;;;;;25.22;69.31;100152.81;4894016;29;20518;-83
2022/07/10 10:37:27;;;;;;;2.35;1.90;;;;;;;25.46;68.34;100149.66;4870763;29;20040;-84
2022/07/10 10:39:57;;;;;;;2.08;1.98;;;;;;;25.69;68.62;100145.66;4889902;29;20029;-85
2022/07/10 10:42:39;;;;;;;1.95;1.85;;;;;;;25.86;68.63;100144.56;4872980;29;20086;-85
2022/07/10 10:45:24;;;;;;;2.13;2.03;;;;;;;25.99;68.07;100138.66;4916146;29;20031;-83
2022/07/10 10:48:05;;;;;;;2.03;1.83;;;;;;;26.13;67.91;100148.84;4888867;29;20063;-83
2022/07/10 10:50:39;;;;;;;2.17;2.08;;;;;;;26.20;67.50;100127.88;4901046;29;20510;-84
2022/07/10 10:53:16;;;;;;;2.80;1.92;;;;;;;26.32;68.80;100131.06;4900868;29;20037;-84
2022/07/10 10:56:04;;;;;;;2.35;2.15;;;;;;;26.36;67.47;100132.16;4903817;29;20028;-84
2022/07/10 10:58:37;;;;;;;1.90;1.80;;;;;;;26.42;68.09;100132.94;4875457;29;20028;-79
2022/07/10 11:01:25;;;;;;;2.65;2.20;;;;;;;26.35;67.58;100130.56;4901780;29;20567;-82
2022/07/10 11:04:10;;;;;;;2.58;2.35;;;;;;;26.33;67.64;100126.50;4885473;29;20542;-82
2022/07/10 11:06:56;;;;;;;4.85;2.28;;;;;;;26.43;68.60;100125.66;4874763;29;20485;-81
2022/07/10 11:09:25;;;;;;;2.38;2.17;;;;;;;26.59;68.23;100129.09;4907641;29;20044;-81
2022/07/10 11:12:04;;;;;;;2.55;2.13;;;;;;;26.64;68.21;100123.72;4889464;29;20024;-83
2022/07/10 11:14:32;;;;;;;2.60;2.08;;;;;;;26.69;67.96;100125.56;4877335;29;20045;-83
2022/07/10 11:16:59;;;;;;;2.08;1.98;;;;;;;26.53;67.71;100120.28;4883767;29;20043;-84
2022/07/10 11:19:27;;;;;;;2.35;2.25;;;;;;;26.81;68.30;100118.78;4908825;29;20032;-82
2022/07/10 11:22:03;;;;;;;2.28;2.17;;;;;;;26.91;66.55;100123.34;4880375;29;20381;-83
2022/07/10 11:24:41;;;;;;;2.60;2.40;;;;;;;26.67;66.56;100109.69;4904942;29;20039;-82
2022/07/10 11:27:39;;;;;;;2.50;2.38;;;;;;;26.96;66.92;100110.94;4888775;29;20036;-85
2022/07/10 11:30:05;;;;;;;2.53;2.35;;;;;;;27.05;67.10;100115.47;4905671;29;20036;-82
2022/07/10 11:32:30;;;;;;;2.95;2.28;;;;;;;27.13;67.27;100106.00;4892156;29;20040;-84
2022/07/10 11:34:57;;;;;;;2.42;2.22;;;;;;;27.29;66.49;100103.97;4906260;29;20033;-84
2022/07/10 11:37:27;;;;;;;3.05;2.28;;;;;;;27.33;65.98;100112.31;4902916;29;20127;-84
2022/07/10 11:40:08;;;;;;;3.83;2.78;;;;;;;27.46;65.99;100113.56;4880441;29;20427;-85
2022/07/10 11:42:53;;;;;;;2.65;2.45;;;;;;;27.59;66.92;100101.34;4908615;29;20406;-84